sensor_id;sensor_type;location;lat;lon;timestamp;pressure;altitude;pressure_sealevel;temperature;humidity
11888;BME280;6003;42.756;23.130;2023-04-06T00:00:33;152264.22;;;-0.58;96.90
11888;BME280;6003;42.756;23.130;2023-04-06T00:03:00;152261.63;;;-0.59;96.43
11888;BME280;6003;42.756;23.130;2023-04-06T00:05:29;152285.19;;;-0.50;96.55
11888;BME280;6003;42.756;23.130;2023-04-06T00:07:57;152298.28;;;-0.44;96.24
11888;BME280;6003;42.756;23.130;2023-04-06T00:10:24;152329.72;;;-0.32;96.46
11888;BME280;6003;42.756;23.130;2023-04-06T00:12:51;152349.38;;;-0.25;96.34
11888;BME280;6003;42.756;23.130;2023-04-06T00:15:18;152348.06;;;-0.25;96.88
11888;BME280;6003;42.756;23.130;2023-04-06T00:17:45;152357.22;;;-0.21;96.28
11888;BME280;6003;42.756;23.130;2023-04-06T00:20:12;152351.97;;;-0.24;97.02
11888;BME280;6003;42.756;23.130;2023-04-06T00:22:40;152363.78;;;-0.19;96.26
11888;BME280;6003;42.756;23.130;2023-04-06T00:25:08;152371.66;;;-0.16;96.53
11888;BME280;6003;42.756;23.130;2023-04-06T00:27:36;152378.19;;;-0.13;95.57
11888;BME280;6003;42.756;23.130;2023-04-06T00:30:03;152355.94;;;-0.22;95.60
11888;BME280;6003;42.756;23.130;2023-04-06T00:32:30;152351.97;;;-0.24;95.73
11888;BME280;6003;42.756;23.130;2023-04-06T00:34:57;152350.69;;;-0.24;95.51
11888;BME280;6003;42.756;23.130;2023-04-06T00:37:24;152379.50;;;-0.13;95.71
11888;BME280;6003;42.756;23.130;2023-04-06T00:39:53;152389.97;;;-0.09;96.69
11888;BME280;6003;42.756;23.130;2023-04-06T00:42:21;152392.59;;;-0.08;95.80
11888;BME280;6003;42.756;23.130;2023-04-06T00:44:51;152371.66;;;-0.16;95.17
11888;BME280;6003;42.756;23.130;2023-04-06T00:47:18;152397.88;;;-0.06;95.49
11888;BME280;6003;42.756;23.130;2023-04-06T00:49:45;152417.50;;;0.02;95.35
11888;BME280;6003;42.756;23.130;2023-04-06T00:52:12;152418.78;;;0.03;95.17
11888;BME280;6003;42.756;23.130;2023-04-06T00:54:39;152425.34;;;0.05;95.07
11888;BME280;6003;42.756;23.130;2023-04-06T00:57:07;152408.31;;;-0.02;95.82
11888;BME280;6003;42.756;23.130;2023-04-06T00:59:34;152400.47;;;-0.05;95.50
11888;BME280;6003;42.756;23.130;2023-04-06T01:02:01;152384.75;;;-0.11;96.18
11888;BME280;6003;42.756;23.130;2023-04-06T01:04:28;152370.34;;;-0.16;98.00
11888;BME280;6003;42.756;23.130;2023-04-06T01:06:55;152384.75;;;-0.11;97.91
11888;BME280;6003;42.756;23.130;2023-04-06T01:09:22;152354.63;;;-0.22;97.97
11888;BME280;6003;42.756;23.130;2023-04-06T01:11:49;152327.13;;;-0.33;99.12
11888;BME280;6003;42.756;23.130;2023-04-06T01:14:17;152332.38;;;-0.31;99.22
11888;BME280;6003;42.756;23.130;2023-04-06T01:16:44;152324.50;;;-0.34;99.40
11888;BME280;6003;42.756;23.130;2023-04-06T01:19:12;152324.50;;;-0.34;100.00
11888;BME280;6003;42.756;23.130;2023-04-06T01:21:40;152332.38;;;-0.31;100.00
11888;BME280;6003;42.756;23.130;2023-04-06T01:24:09;152323.16;;;-0.35;100.00
11888;BME280;6003;42.756;23.130;2023-04-06T01:26:37;152329.72;;;-0.32;100.00
11888;BME280;6003;42.756;23.130;2023-04-06T01:29:04;152334.97;;;-0.30;100.00
11888;BME280;6003;42.756;23.130;2023-04-06T01:31:31;152320.56;;;-0.36;100.00
11888;BME280;6003;42.756;23.130;2023-04-06T01:33:58;152324.50;;;-0.34;99.72
11888;BME280;6003;42.756;23.130;2023-04-06T01:36:25;152306.16;;;-0.41;100.00
11888;BME280;6003;42.756;23.130;2023-04-06T01:38:52;152319.25;;;-0.36;100.00
11888;BME280;6003;42.756;23.130;2023-04-06T01:41:21;152304.84;;;-0.42;100.00
11888;BME280;6003;42.756;23.130;2023-04-06T01:43:48;152293.03;;;-0.47;100.00
11888;BME280;6003;42.756;23.130;2023-04-06T01:46:19;152285.19;;;-0.50;100.00
11888;BME280;6003;42.756;23.130;2023-04-06T01:48:46;152277.34;;;-0.53;100.00
11888;BME280;6003;42.756;23.130;2023-04-06T01:51:13;152285.19;;;-0.50;100.00
11888;BME280;6003;42.756;23.130;2023-04-06T01:53:40;152277.34;;;-0.53;100.00
11888;BME280;6003;42.756;23.130;2023-04-06T01:56:07;152273.44;;;-0.54;100.00
11888;BME280;6003;42.756;23.130;2023-04-06T01:58:35;152253.78;;;-0.62;100.00
11888;BME280;6003;42.756;23.130;2023-04-06T02:01:02;152248.53;;;-0.64;100.00
11888;BME280;6003;42.756;23.130;2023-04-06T02:03:30;152261.63;;;-0.59;100.00
11888;BME280;6003;42.756;23.130;2023-04-06T02:05:57;152257.72;;;-0.60;100.00
11888;BME280;6003;42.756;23.130;2023-04-06T02:08:23;152266.88;;;-0.57;100.00
11888;BME280;6003;42.756;23.130;2023-04-06T02:10:51;152256.38;;;-0.61;100.00
11888;BME280;6003;42.756;23.130;2023-04-06T02:13:17;152234.13;;;-0.70;100.00
11888;BME280;6003;42.756;23.130;2023-04-06T02:15:46;152245.91;;;-0.65;100.00
11888;BME280;6003;42.756;23.130;2023-04-06T02:18:12;152248.53;;;-0.64;100.00
11888;BME280;6003;42.756;23.130;2023-04-06T02:20:39;152260.31;;;-0.59;100.00
11888;BME280;6003;42.756;23.130;2023-04-06T02:23:07;152260.31;;;-0.59;100.00
11888;BME280;6003;42.756;23.130;2023-04-06T02:25:34;152276.03;;;-0.53;100.00
11888;BME280;6003;42.756;23.130;2023-04-06T02:28:01;152287.84;;;-0.49;100.00
11888;BME280;6003;42.756;23.130;2023-04-06T02:30:28;152306.16;;;-0.41;100.00
11888;BME280;6003;42.756;23.130;2023-04-06T02:32:59;152300.91;;;-0.43;100.00
11888;BME280;6003;42.756;23.130;2023-04-06T02:35:27;152314.00;;;-0.38;100.00
11888;BME280;6003;42.756;23.130;2023-04-06T02:37:55;152334.97;;;-0.30;100.00
11888;BME280;6003;42.756;23.130;2023-04-06T02:40:22;152350.69;;;-0.24;100.00
11888;BME280;6003;42.756;23.130;2023-04-06T02:42:49;152351.97;;;-0.24;100.00
11888;BME280;6003;42.756;23.130;2023-04-06T02:45:15;152354.63;;;-0.22;100.00
11888;BME280;6003;42.756;23.130;2023-04-06T02:47:42;152340.22;;;-0.28;99.58
11888;BME280;6003;42.756;23.130;2023-04-06T02:50:11;152358.53;;;-0.21;99.30
11888;BME280;6003;42.756;23.130;2023-04-06T02:52:38;152376.91;;;-0.14;99.66
11888;BME280;6003;42.756;23.130;2023-04-06T02:55:06;152408.31;;;-0.02;99.54
11888;BME280;6003;42.756;23.130;2023-04-06T02:57:33;152413.59;;;0.01;98.72
11888;BME280;6003;42.756;23.130;2023-04-06T03:00:01;152412.28;;;0.00;97.99
11888;BME280;6003;42.756;23.130;2023-04-06T03:02:28;152422.75;;;0.04;96.57
11888;BME280;6003;42.756;23.130;2023-04-06T03:04:55;152431.91;;;0.08;96.32
11888;BME280;6003;42.756;23.130;2023-04-06T03:07:23;152430.59;;;0.07;95.87
11888;BME280;6003;42.756;23.130;2023-04-06T03:09:50;152434.56;;;0.09;96.75
11888;BME280;6003;42.756;23.130;2023-04-06T03:12:17;152405.72;;;-0.03;95.67
11888;BME280;6003;42.756;23.130;2023-04-06T03:14:44;152413.59;;;0.01;95.51
11888;BME280;6003;42.756;23.130;2023-04-06T03:17:11;152392.59;;;-0.08;95.85
11888;BME280;6003;42.756;23.130;2023-04-06T03:19:37;152374.25;;;-0.15;95.77
11888;BME280;6003;42.756;23.130;2023-04-06T03:22:04;152371.66;;;-0.16;96.59
11888;BME280;6003;42.756;23.130;2023-04-06T03:24:32;152366.38;;;-0.18;96.69
11888;BME280;6003;42.756;23.130;2023-04-06T03:27:00;152361.19;;;-0.20;96.09
11888;BME280;6003;42.756;23.130;2023-04-06T03:29:27;152342.81;;;-0.27;96.25
11888;BME280;6003;42.756;23.130;2023-04-06T03:31:53;152336.28;;;-0.30;96.65
11888;BME280;6003;42.756;23.130;2023-04-06T03:34:20;152349.38;;;-0.25;96.45
11888;BME280;6003;42.756;23.130;2023-04-06T03:36:47;152349.38;;;-0.25;96.07
11888;BME280;6003;42.756;23.130;2023-04-06T03:39:14;152334.97;;;-0.30;96.96
11888;BME280;6003;42.756;23.130;2023-04-06T03:41:42;152366.38;;;-0.18;96.27
11888;BME280;6003;42.756;23.130;2023-04-06T03:44:10;152361.19;;;-0.20;96.39
11888;BME280;6003;42.756;23.130;2023-04-06T03:46:37;152389.97;;;-0.09;97.89
11888;BME280;6003;42.756;23.130;2023-04-06T03:49:04;152387.34;;;-0.10;98.84
11888;BME280;6003;42.756;23.130;2023-04-06T03:51:31;152400.47;;;-0.05;99.79
11888;BME280;6003;42.756;23.130;2023-04-06T03:53:57;152410.94;;;-0.01;98.67
11888;BME280;6003;42.756;23.130;2023-04-06T03:56:24;152413.59;;;0.01;98.49
11888;BME280;6003;42.756;23.130;2023-04-06T03:58:53;152403.06;;;-0.04;98.85
11888;BME280;6003;42.756;23.130;2023-04-06T04:01:20;152420.13;;;0.03;98.14
11888;BME280;6003;42.756;23.130;2023-04-06T04:03:46;152410.94;;;-0.01;97.59
11888;BME280;6003;42.756;23.130;2023-04-06T04:06:13;152421.44;;;0.04;98.64
11888;BME280;6003;42.756;23.130;2023-04-06T04:08:40;152418.78;;;0.03;97.34
11888;BME280;6003;42.756;23.130;2023-04-06T04:11:07;152397.88;;;-0.06;96.36
11888;BME280;6003;42.756;23.130;2023-04-06T04:13:34;152399.16;;;-0.05;96.63
11888;BME280;6003;42.756;23.130;2023-04-06T04:16:02;152404.38;;;-0.03;97.65
11888;BME280;6003;42.756;23.130;2023-04-06T04:18:29;152412.28;;;0.00;97.66
11888;BME280;6003;42.756;23.130;2023-04-06T04:20:56;152403.06;;;-0.04;96.72
11888;BME280;6003;42.756;23.130;2023-04-06T04:23:22;152405.72;;;-0.03;97.33
11888;BME280;6003;42.756;23.130;2023-04-06T04:25:49;152404.38;;;-0.03;95.74
11888;BME280;6003;42.756;23.130;2023-04-06T04:28:16;152387.34;;;-0.10;96.22
11888;BME280;6003;42.756;23.130;2023-04-06T04:30:43;152379.50;;;-0.13;97.15
11888;BME280;6003;42.756;23.130;2023-04-06T04:33:11;152371.66;;;-0.16;97.50
11888;BME280;6003;42.756;23.130;2023-04-06T04:35:38;152384.75;;;-0.11;97.47
11888;BME280;6003;42.756;23.130;2023-04-06T04:38:05;152391.31;;;-0.08;97.68
11888;BME280;6003;42.756;23.130;2023-04-06T04:40:32;152410.94;;;-0.01;98.09
11888;BME280;6003;42.756;23.130;2023-04-06T04:42:59;152396.50;;;-0.06;98.36
11888;BME280;6003;42.756;23.130;2023-04-06T04:45:26;152441.06;;;0.11;98.86
11888;BME280;6003;42.756;23.130;2023-04-06T04:47:53;152451.56;;;0.15;97.44
11888;BME280;6003;42.756;23.130;2023-04-06T04:50:21;152489.56;;;0.30;98.25
11888;BME280;6003;42.756;23.130;2023-04-06T04:52:48;152490.88;;;0.31;97.62
11888;BME280;6003;42.756;23.130;2023-04-06T04:55:16;152494.81;;;0.32;96.62
11888;BME280;6003;42.756;23.130;2023-04-06T04:57:43;152463.34;;;0.20;96.60
11888;BME280;6003;42.756;23.130;2023-04-06T05:00:11;152439.75;;;0.11;95.48
11888;BME280;6003;42.756;23.130;2023-04-06T05:02:38;152445.00;;;0.13;97.15
11888;BME280;6003;42.756;23.130;2023-04-06T05:05:06;152433.19;;;0.08;96.25
11888;BME280;6003;42.756;23.130;2023-04-06T05:07:34;152473.84;;;0.24;97.26
11888;BME280;6003;42.756;23.130;2023-04-06T05:10:01;152484.31;;;0.28;96.95
11888;BME280;6003;42.756;23.130;2023-04-06T05:12:28;152476.44;;;0.25;96.44
11888;BME280;6003;42.756;23.130;2023-04-06T05:14:55;152477.75;;;0.26;96.02
11888;BME280;6003;42.756;23.130;2023-04-06T05:17:22;152468.59;;;0.22;96.41
11888;BME280;6003;42.756;23.130;2023-04-06T05:19:49;152476.44;;;0.25;96.61
11888;BME280;6003;42.756;23.130;2023-04-06T05:22:16;152497.44;;;0.33;96.60
11888;BME280;6003;42.756;23.130;2023-04-06T05:24:44;152503.97;;;0.36;96.00
11888;BME280;6003;42.756;23.130;2023-04-06T05:27:11;152486.97;;;0.29;95.62
11888;BME280;6003;42.756;23.130;2023-04-06T05:29:38;152488.25;;;0.30;96.02
11888;BME280;6003;42.756;23.130;2023-04-06T05:32:05;152484.31;;;0.28;96.92
11888;BME280;6003;42.756;23.130;2023-04-06T05:34:33;152500.03;;;0.34;97.08
11888;BME280;6003;42.756;23.130;2023-04-06T05:37:00;152483.00;;;0.28;96.45
11888;BME280;6003;42.756;23.130;2023-04-06T05:39:27;152492.16;;;0.31;97.04
11888;BME280;6003;42.756;23.130;2023-04-06T05:41:55;152531.53;;;0.47;96.59
11888;BME280;6003;42.756;23.130;2023-04-06T05:44:22;152534.13;;;0.48;96.69
11888;BME280;6003;42.756;23.130;2023-04-06T05:46:49;152576.09;;;0.64;97.30
11888;BME280;6003;42.756;23.130;2023-04-06T05:49:16;152536.72;;;0.49;96.26
11888;BME280;6003;42.756;23.130;2023-04-06T05:51:43;152551.16;;;0.54;97.31
11888;BME280;6003;42.756;23.130;2023-04-06T05:54:09;152527.56;;;0.45;96.88
11888;BME280;6003;42.756;23.130;2023-04-06T05:56:36;152535.41;;;0.48;96.69
11888;BME280;6003;42.756;23.130;2023-04-06T05:59:05;152561.66;;;0.58;96.52
11888;BME280;6003;42.756;23.130;2023-04-06T06:01:32;152574.78;;;0.63;96.80
11888;BME280;6003;42.756;23.130;2023-04-06T06:04:00;152559.00;;;0.57;95.78
11888;BME280;6003;42.756;23.130;2023-04-06T06:06:28;152585.25;;;0.67;96.91
11888;BME280;6003;42.756;23.130;2023-04-06T06:08:55;152594.41;;;0.71;97.47
11888;BME280;6003;42.756;23.130;2023-04-06T06:11:24;152599.66;;;0.73;97.42
11888;BME280;6003;42.756;23.130;2023-04-06T06:13:51;152595.72;;;0.72;97.48
11888;BME280;6003;42.756;23.130;2023-04-06T06:16:19;152581.28;;;0.66;96.74
11888;BME280;6003;42.756;23.130;2023-04-06T06:18:46;152591.81;;;0.70;97.69
11888;BME280;6003;42.756;23.130;2023-04-06T06:21:14;152612.78;;;0.78;97.89
11888;BME280;6003;42.756;23.130;2023-04-06T06:23:42;152599.66;;;0.73;97.64
11888;BME280;6003;42.756;23.130;2023-04-06T06:26:09;152597.06;;;0.72;98.42
11888;BME280;6003;42.756;23.130;2023-04-06T06:28:36;152598.38;;;0.73;98.22
11888;BME280;6003;42.756;23.130;2023-04-06T06:31:03;152628.53;;;0.84;97.91
11888;BME280;6003;42.756;23.130;2023-04-06T06:33:31;152629.81;;;0.85;96.89
11888;BME280;6003;42.756;23.130;2023-04-06T06:35:58;152641.63;;;0.89;97.80
11888;BME280;6003;42.756;23.130;2023-04-06T06:38:25;152669.13;;;1.00;97.60
11888;BME280;6003;42.756;23.130;2023-04-06T06:40:52;152694.09;;;1.10;96.76
11888;BME280;6003;42.756;23.130;2023-04-06T06:43:19;152682.25;;;1.05;94.59
11888;BME280;6003;42.756;23.130;2023-04-06T06:45:46;152734.72;;;1.26;94.70
11888;BME280;6003;42.756;23.130;2023-04-06T06:48:13;152722.94;;;1.21;94.14
11888;BME280;6003;42.756;23.130;2023-04-06T06:50:41;152733.41;;;1.25;94.67
11888;BME280;6003;42.756;23.130;2023-04-06T06:53:08;152772.75;;;1.41;96.00
11888;BME280;6003;42.756;23.130;2023-04-06T06:55:36;152750.44;;;1.32;94.17
11888;BME280;6003;42.756;23.130;2023-04-06T06:58:03;152809.47;;;1.55;94.88
11888;BME280;6003;42.756;23.130;2023-04-06T07:00:31;152792.44;;;1.48;93.15
11888;BME280;6003;42.756;23.130;2023-04-06T07:02:58;152785.88;;;1.46;93.34
11888;BME280;6003;42.756;23.130;2023-04-06T07:05:25;152755.72;;;1.34;91.85
11888;BME280;6003;42.756;23.130;2023-04-06T07:07:54;152747.84;;;1.31;93.04
11888;BME280;6003;42.756;23.130;2023-04-06T07:10:21;152778.00;;;1.43;93.71
11888;BME280;6003;42.756;23.130;2023-04-06T07:12:48;152754.41;;;1.33;93.21
11888;BME280;6003;42.756;23.130;2023-04-06T07:15:15;152734.72;;;1.26;93.34
11888;BME280;6003;42.756;23.130;2023-04-06T07:17:42;152775.41;;;1.42;94.33
11888;BME280;6003;42.756;23.130;2023-04-06T07:20:10;152762.28;;;1.37;93.15
11888;BME280;6003;42.756;23.130;2023-04-06T07:22:37;152772.75;;;1.41;93.54
11888;BME280;6003;42.756;23.130;2023-04-06T07:25:07;152801.59;;;1.52;94.41
11888;BME280;6003;42.756;23.130;2023-04-06T07:27:34;152783.28;;;1.45;93.66
11888;BME280;6003;42.756;23.130;2023-04-06T07:30:01;152806.88;;;1.54;93.99
11888;BME280;6003;42.756;23.130;2023-04-06T07:32:28;152825.22;;;1.61;92.81
11888;BME280;6003;42.756;23.130;2023-04-06T07:34:56;152854.09;;;1.72;92.06
11888;BME280;6003;42.756;23.130;2023-04-06T07:37:23;152898.69;;;1.90;91.39
11888;BME280;6003;42.756;23.130;2023-04-06T07:39:51;152902.66;;;1.91;91.09
11888;BME280;6003;42.756;23.130;2023-04-06T07:42:19;152898.69;;;1.90;90.85
11888;BME280;6003;42.756;23.130;2023-04-06T07:44:47;152961.72;;;2.14;91.33
11888;BME280;6003;42.756;23.130;2023-04-06T07:47:15;152993.22;;;2.26;91.50
11888;BME280;6003;42.756;23.130;2023-04-06T07:49:42;152965.69;;;2.16;88.51
11888;BME280;6003;42.756;23.130;2023-04-06T07:52:09;153024.75;;;2.39;88.60
11888;BME280;6003;42.756;23.130;2023-04-06T07:54:36;153057.56;;;2.52;88.35
11888;BME280;6003;42.756;23.130;2023-04-06T07:57:03;153066.72;;;2.55;87.12
11888;BME280;6003;42.756;23.130;2023-04-06T07:59:31;153091.72;;;2.65;87.18
11888;BME280;6003;42.756;23.130;2023-04-06T08:01:58;153111.38;;;2.72;87.14
11888;BME280;6003;42.756;23.130;2023-04-06T08:04:25;153162.59;;;2.92;87.03
11888;BME280;6003;42.756;23.130;2023-04-06T08:06:52;153162.59;;;2.92;86.27
11888;BME280;6003;42.756;23.130;2023-04-06T08:09:18;153161.28;;;2.92;87.09
11888;BME280;6003;42.756;23.130;2023-04-06T08:11:45;153117.94;;;2.75;85.64
11888;BME280;6003;42.756;23.130;2023-04-06T08:14:14;153091.72;;;2.65;85.52
11888;BME280;6003;42.756;23.130;2023-04-06T08:16:43;153135.00;;;2.82;86.74
11888;BME280;6003;42.756;23.130;2023-04-06T08:19:10;153157.34;;;2.90;86.93
11888;BME280;6003;42.756;23.130;2023-04-06T08:21:37;153166.56;;;2.94;86.79
11888;BME280;6003;42.756;23.130;2023-04-06T08:24:05;153148.16;;;2.87;85.39
11888;BME280;6003;42.756;23.130;2023-04-06T08:26:32;153179.66;;;2.99;84.95
11888;BME280;6003;42.756;23.130;2023-04-06T08:28:59;153186.25;;;3.02;83.66
11888;BME280;6003;42.756;23.130;2023-04-06T08:31:26;153192.81;;;3.04;84.65
11888;BME280;6003;42.756;23.130;2023-04-06T08:33:54;153232.25;;;3.20;86.35
11888;BME280;6003;42.756;23.130;2023-04-06T08:36:21;153198.06;;;3.06;84.61
11888;BME280;6003;42.756;23.130;2023-04-06T08:38:49;153234.88;;;3.21;84.97
11888;BME280;6003;42.756;23.130;2023-04-06T08:41:16;153232.25;;;3.20;84.10
11888;BME280;6003;42.756;23.130;2023-04-06T08:43:44;153266.38;;;3.33;85.29
11888;BME280;6003;42.756;23.130;2023-04-06T08:46:13;153245.34;;;3.25;83.63
11888;BME280;6003;42.756;23.130;2023-04-06T08:48:40;153249.31;;;3.26;83.54
11888;BME280;6003;42.756;23.130;2023-04-06T08:51:09;153248.03;;;3.26;85.38
11888;BME280;6003;42.756;23.130;2023-04-06T08:53:37;153194.13;;;3.05;83.41
11888;BME280;6003;42.756;23.130;2023-04-06T08:56:05;153232.25;;;3.20;83.69
11888;BME280;6003;42.756;23.130;2023-04-06T08:58:34;153266.38;;;3.33;84.60
11888;BME280;6003;42.756;23.130;2023-04-06T09:01:06;153295.31;;;3.44;83.71
11888;BME280;6003;42.756;23.130;2023-04-06T09:03:37;153276.94;;;3.37;82.60
11888;BME280;6003;42.756;23.130;2023-04-06T11:24:22;153851.66;;;5.60;72.15
11888;BME280;6003;42.756;23.130;2023-04-06T11:26:51;153879.31;;;5.71;70.50
11888;BME280;6003;42.756;23.130;2023-04-06T11:29:19;153905.66;;;5.81;72.28
11888;BME280;6003;42.756;23.130;2023-04-06T11:31:48;153942.59;;;5.96;70.61
11888;BME280;6003;42.756;23.130;2023-04-06T11:34:17;153957.06;;;6.01;68.67
11888;BME280;6003;42.756;23.130;2023-04-06T11:36:45;153953.09;;;6.00;69.24
11888;BME280;6003;42.756;23.130;2023-04-06T11:39:12;153908.28;;;5.82;70.91
11888;BME280;6003;42.756;23.130;2023-04-06T11:41:41;153905.66;;;5.81;71.74
11888;BME280;6003;42.756;23.130;2023-04-06T11:44:08;153910.91;;;5.83;70.46
11888;BME280;6003;42.756;23.130;2023-04-06T11:46:35;153976.78;;;6.09;68.92
11888;BME280;6003;42.756;23.130;2023-04-06T11:49:02;153979.47;;;6.10;68.01
11888;BME280;6003;42.756;23.130;2023-04-06T11:51:29;153986.00;;;6.13;67.94
11888;BME280;6003;42.756;23.130;2023-04-06T11:53:56;154013.69;;;6.23;69.38
11888;BME280;6003;42.756;23.130;2023-04-06T11:56:26;154025.56;;;6.28;71.96
11888;BME280;6003;42.756;23.130;2023-04-06T11:58:58;154046.63;;;6.36;70.06
11888;BME280;6003;42.756;23.130;2023-04-06T12:01:26;153966.28;;;6.05;68.82
11888;BME280;6003;42.756;23.130;2023-04-06T12:03:53;153992.59;;;6.15;68.34
11888;BME280;6003;42.756;23.130;2023-04-06T12:06:20;153963.63;;;6.04;67.91
11888;BME280;6003;42.756;23.130;2023-04-06T12:08:47;154026.84;;;6.28;70.37
11888;BME280;6003;42.756;23.130;2023-04-06T12:11:14;154025.56;;;6.28;68.27
11888;BME280;6003;42.756;23.130;2023-04-06T12:13:40;154009.75;;;6.22;67.50
11888;BME280;6003;42.756;23.130;2023-04-06T12:16:09;154040.03;;;6.33;69.50
11888;BME280;6003;42.756;23.130;2023-04-06T12:18:35;154032.16;;;6.30;66.84
11888;BME280;6003;42.756;23.130;2023-04-06T12:21:03;154042.66;;;6.35;67.99
11888;BME280;6003;42.756;23.130;2023-04-06T12:23:30;154140.16;;;6.72;66.71
11888;BME280;6003;42.756;23.130;2023-04-06T12:25:57;154136.22;;;6.71;67.66
11888;BME280;6003;42.756;23.130;2023-04-06T12:28:24;154100.63;;;6.57;67.97
11888;BME280;6003;42.756;23.130;2023-04-06T12:30:52;154003.16;;;6.19;68.02
11888;BME280;6003;42.756;23.130;2023-04-06T12:33:22;153938.63;;;5.94;68.41
11888;BME280;6003;42.756;23.130;2023-04-06T12:35:48;153959.69;;;6.02;66.60
11888;BME280;6003;42.756;23.130;2023-04-06T12:38:15;153928.06;;;5.90;68.13
11888;BME280;6003;42.756;23.130;2023-04-06T12:40:42;153968.91;;;6.06;68.57
11888;BME280;6003;42.756;23.130;2023-04-06T12:43:09;153992.59;;;6.15;69.83
11888;BME280;6003;42.756;23.130;2023-04-06T12:45:36;153984.69;;;6.12;69.76
11888;BME280;6003;42.756;23.130;2023-04-06T12:48:03;153946.50;;;5.97;69.58
11888;BME280;6003;42.756;23.130;2023-04-06T12:50:31;153961.00;;;6.03;70.72
11888;BME280;6003;42.756;23.130;2023-04-06T12:52:58;153937.31;;;5.94;70.49
11888;BME280;6003;42.756;23.130;2023-04-06T12:55:25;153916.19;;;5.85;71.65
11888;BME280;6003;42.756;23.130;2023-04-06T12:57:52;153838.53;;;5.55;70.83
11888;BME280;6003;42.756;23.130;2023-04-06T13:00:20;153826.66;;;5.51;69.19
11888;BME280;6003;42.756;23.130;2023-04-06T13:02:47;153821.38;;;5.49;70.89
11888;BME280;6003;42.756;23.130;2023-04-06T13:05:14;153870.09;;;5.68;70.49
11888;BME280;6003;42.756;23.130;2023-04-06T13:07:45;153929.34;;;5.91;68.13
11888;BME280;6003;42.756;23.130;2023-04-06T13:10:13;153903.00;;;5.80;70.20
11888;BME280;6003;42.756;23.130;2023-04-06T13:12:39;153891.19;;;5.76;69.53
11888;BME280;6003;42.756;23.130;2023-04-06T13:15:07;153903.00;;;5.80;69.36
11888;BME280;6003;42.756;23.130;2023-04-06T13:17:34;153876.69;;;5.70;68.19
11888;BME280;6003;42.756;23.130;2023-04-06T13:20:01;153917.47;;;5.86;72.94
11888;BME280;6003;42.756;23.130;2023-04-06T13:22:28;153968.91;;;6.06;69.49
11888;BME280;6003;42.756;23.130;2023-04-06T13:24:57;154000.50;;;6.18;67.96
11888;BME280;6003;42.756;23.130;2023-04-06T13:27:24;153962.31;;;6.03;68.56
11888;BME280;6003;42.756;23.130;2023-04-06T13:29:50;154008.41;;;6.21;70.41
11888;BME280;6003;42.756;23.130;2023-04-06T13:32:17;154017.66;;;6.25;70.23
11888;BME280;6003;42.756;23.130;2023-04-06T13:34:44;153967.59;;;6.05;67.57
11888;BME280;6003;42.756;23.130;2023-04-06T13:37:13;153942.59;;;5.96;68.18
11888;BME280;6003;42.756;23.130;2023-04-06T13:39:40;153938.63;;;5.94;68.01
11888;BME280;6003;42.756;23.130;2023-04-06T13:42:08;153964.97;;;6.04;67.64
11888;BME280;6003;42.756;23.130;2023-04-06T13:44:35;153922.78;;;5.88;67.80
11888;BME280;6003;42.756;23.130;2023-04-06T13:47:02;153905.66;;;5.81;67.70
11888;BME280;6003;42.756;23.130;2023-04-06T13:49:29;153975.50;;;6.08;69.57
11888;BME280;6003;42.756;23.130;2023-04-06T13:51:55;153959.69;;;6.02;67.44
11888;BME280;6003;42.756;23.130;2023-04-06T13:54:22;153979.47;;;6.10;66.46
11888;BME280;6003;42.756;23.130;2023-04-06T13:56:51;153963.63;;;6.04;66.04
11888;BME280;6003;42.756;23.130;2023-04-06T13:59:19;153989.97;;;6.14;68.82
11888;BME280;6003;42.756;23.130;2023-04-06T14:01:46;153922.78;;;5.88;67.67
11888;BME280;6003;42.756;23.130;2023-04-06T14:04:13;153896.41;;;5.78;67.79
11888;BME280;6003;42.756;23.130;2023-04-06T14:06:40;153909.59;;;5.83;68.68
11888;BME280;6003;42.756;23.130;2023-04-06T14:09:07;153910.91;;;5.83;69.65
11888;BME280;6003;42.756;23.130;2023-04-06T14:11:34;153881.94;;;5.72;69.50
11888;BME280;6003;42.756;23.130;2023-04-06T14:14:02;153899.06;;;5.79;69.61
11888;BME280;6003;42.756;23.130;2023-04-06T14:16:30;153855.63;;;5.62;68.99
11888;BME280;6003;42.756;23.130;2023-04-06T14:18:57;153845.06;;;5.58;69.49
11888;BME280;6003;42.756;23.130;2023-04-06T14:21:24;153866.13;;;5.66;68.98
11888;BME280;6003;42.756;23.130;2023-04-06T14:23:51;153821.38;;;5.49;66.71
11888;BME280;6003;42.756;23.130;2023-04-06T14:26:19;153768.72;;;5.28;66.67
11888;BME280;6003;42.756;23.130;2023-04-06T14:28:46;153706.91;;;5.04;68.26
11888;BME280;6003;42.756;23.130;2023-04-06T14:31:14;153656.88;;;4.85;68.62
11888;BME280;6003;42.756;23.130;2023-04-06T14:33:42;153618.75;;;4.70;69.47
11888;BME280;6003;42.756;23.130;2023-04-06T14:36:09;153626.63;;;4.73;70.98
11888;BME280;6003;42.756;23.130;2023-04-06T14:38:36;153614.78;;;4.68;72.22
11888;BME280;6003;42.756;23.130;2023-04-06T14:41:03;153606.88;;;4.65;70.98
11888;BME280;6003;42.756;23.130;2023-04-06T14:43:30;153568.75;;;4.50;72.83
11888;BME280;6003;42.756;23.130;2023-04-06T14:46:00;153521.44;;;4.32;72.34
11888;BME280;6003;42.756;23.130;2023-04-06T14:48:27;153497.72;;;4.23;72.09
11888;BME280;6003;42.756;23.130;2023-04-06T14:50:56;153484.59;;;4.18;74.33
11888;BME280;6003;42.756;23.130;2023-04-06T14:53:23;153471.44;;;4.13;73.70
11888;BME280;6003;42.756;23.130;2023-04-06T14:55:50;153466.16;;;4.11;74.37
11888;BME280;6003;42.756;23.130;2023-04-06T14:58:17;153450.41;;;4.04;74.86
11888;BME280;6003;42.756;23.130;2023-04-06T15:00:44;153418.84;;;3.92;75.77
11888;BME280;6003;42.756;23.130;2023-04-06T15:03:11;153375.47;;;3.75;75.92
11888;BME280;6003;42.756;23.130;2023-04-06T15:05:38;153339.97;;;3.61;76.90
11888;BME280;6003;42.756;23.130;2023-04-06T15:08:07;153315.03;;;3.52;77.62
11888;BME280;6003;42.756;23.130;2023-04-06T15:10:34;153270.34;;;3.34;77.87
11888;BME280;6003;42.756;23.130;2023-04-06T15:13:01;153261.13;;;3.31;78.86